Time;durP1;ratioP1;P1;durP2;ratioP2;P2;SDS_P1;SDS_P2;PMS_P1;PMS_P2;Temp;Humidity;BMP_temperature;BMP_pressure;BME280_temperature;BME280_humidity;BME280_pressure;Samples;Min_cycle;Max_cycle;Signal;HPM_P1;HPM_P2
2023/05/18 00:01:52;;;;;;;0.10;0.10;;;8.50;99.90;;;;;;4876630;29;20116;-75
2023/05/18 00:04:46;;;;;;;0.20;0.20;;;8.40;99.90;;;;;;4863169;29;20126;-76
2023/05/18 00:07:24;;;;;;;0.20;0.20;;;9.00;99.90;;;;;;4877252;29;20141;-76
2023/05/18 00:09:49;;;;;;;0.20;0.20;;;8.70;99.90;;;;;;4874242;29;20093;-76
2023/05/18 00:12:33;;;;;;;0.20;0.20;;;8.90;99.90;;;;;;4873987;29;20544;-76
2023/05/18 00:14:59;;;;;;;0.20;0.20;;;8.50;99.90;;;;;;4858655;29;20045;-76
2023/05/18 00:17:25;;;;;;;0.20;0.20;;;8.50;99.90;;;;;;4877395;29;20530;-76
2023/05/18 00:19:51;;;;;;;0.10;0.10;;;8.80;99.90;;;;;;4859880;29;20048;-76
2023/05/18 00:22:28;;;;;;;0.10;0.10;;;8.50;99.90;;;;;;4876076;29;20516;-76
2023/05/18 00:25:04;;;;;;;0.10;0.10;;;9.00;99.90;;;;;;4858407;29;20037;-76
2023/05/18 00:27:42;;;;;;;0.20;0.20;;;8.50;99.90;;;;;;4868860;29;20053;-76
2023/05/18 00:41:54;;;;;;;0.20;0.20;;;8.50;99.90;;;;;;4868196;29;20132;-76
2023/05/18 00:44:35;;;;;;;0.10;0.10;;;8.40;99.90;;;;;;4875645;29;20080;-76
2023/05/18 00:47:10;;;;;;;0.20;0.20;;;8.50;99.90;;;;;;4859848;29;20037;-76
2023/05/18 00:49:36;;;;;;;0.20;0.20;;;8.50;99.90;;;;;;4858047;29;20055;-76
2023/05/18 00:52:04;;;;;;;0.20;0.20;;;8.50;99.90;;;;;;4890764;29;20638;-77
2023/05/18 00:54:33;;;;;;;0.20;0.20;;;8.50;99.90;;;;;;4859331;29;20109;-76
2023/05/18 00:57:01;;;;;;;0.15;0.15;;;9.30;99.90;;;;;;4858017;29;20069;-77
2023/05/18 01:00:06;;;;;;;0.20;0.20;;;9.00;99.90;;;;;;4873856;29;20057;-76
2023/05/18 01:03:09;;;;;;;0.20;0.20;;;8.30;99.90;;;;;;4860400;29;20103;-76
2023/05/18 01:05:38;;;;;;;0.20;0.20;;;8.40;99.90;;;;;;4858815;29;20045;-77
2023/05/18 01:08:04;;;;;;;0.20;0.20;;;8.40;99.90;;;;;;4883082;29;20420;-76
2023/05/18 01:10:45;;;;;;;0.20;0.20;;;8.40;99.90;;;;;;4873751;29;20516;-76
2023/05/18 01:13:59;;;;;;;0.20;0.20;;;8.40;99.90;;;;;;4876880;29;20053;-77
2023/05/18 01:17:24;;;;;;;0.20;0.20;;;8.40;99.90;;;;;;4802179;29;20150;-76
2023/05/18 01:20:44;;;;;;;0.20;0.20;;;8.40;99.90;;;;;;4788387;29;20062;-76
2023/05/18 01:23:35;;;;;;;0.20;0.20;;;8.90;99.90;;;;;;4806866;29;20567;-76
2023/05/18 01:26:30;;;;;;;0.20;0.20;;;8.40;99.90;;;;;;4817892;29;20449;-76
2023/05/18 01:29:18;;;;;;;0.10;0.10;;;8.00;99.90;;;;;;4858611;29;20084;-76
2023/05/18 01:31:56;;;;;;;0.13;0.13;;;8.40;99.90;;;;;;4861718;29;20159;-76
2023/05/18 01:34:25;;;;;;;0.10;0.10;;;8.40;99.90;;;;;;4862149;29;20037;-76
2023/05/18 01:36:51;;;;;;;0.10;0.10;;;8.90;99.90;;;;;;4859065;29;20096;-77
2023/05/18 01:39:17;;;;;;;0.20;0.20;;;8.40;99.90;;;;;;4858022;29;20053;-76
2023/05/18 01:42:05;;;;;;;0.20;0.20;;;9.30;99.90;;;;;;4859273;29;20057;-76
2023/05/18 01:44:52;;;;;;;0.20;0.20;;;8.40;99.90;;;;;;4864061;23;20425;-76
2023/05/18 01:47:18;;;;;;;0.20;0.20;;;8.40;99.90;;;;;;4875967;29;20505;-76
2023/05/18 01:50:29;;;;;;;0.20;0.20;;;8.40;99.90;;;;;;4864670;29;20057;-76
2023/05/18 01:53:19;;;;;;;0.20;0.20;;;8.40;99.90;;;;;;4877824;29;20057;-76
2023/05/18 01:55:49;;;;;;;0.20;0.20;;;9.40;99.90;;;;;;4862657;29;20570;-76
2023/05/18 01:58:28;;;;;;;0.10;0.10;;;8.40;99.90;;;;;;4861987;29;20041;-76
2023/05/18 02:01:35;;;;;;;0.10;0.10;;;8.20;99.90;;;;;;4859982;29;20072;-76
2023/05/18 02:04:00;;;;;;;0.20;0.20;;;8.70;99.90;;;;;;4769846;30;20051;-76
2023/05/18 02:06:53;;;;;;;0.20;0.20;;;8.40;99.90;;;;;;4780665;23;20074;-77
2023/05/18 02:09:31;;;;;;;0.20;0.20;;;8.10;99.90;;;;;;4858986;29;20049;-77
2023/05/18 02:12:05;;;;;;;0.20;0.20;;;8.40;99.90;;;;;;4876760;29;20045;-76
2023/05/18 02:14:37;;;;;;;0.10;0.10;;;8.40;99.90;;;;;;4859843;29;20136;-76
2023/05/18 02:17:09;;;;;;;0.10;0.10;;;8.40;99.90;;;;;;4874998;29;20105;-76
2023/05/18 02:19:44;;;;;;;0.20;0.20;;;8.40;99.90;;;;;;4882466;29;20049;-76
2023/05/18 02:22:21;;;;;;;0.20;0.20;;;9.10;99.90;;;;;;4877846;29;20585;-76
2023/05/18 02:24:47;;;;;;;0.20;0.20;;;9.20;99.90;;;;;;4877707;29;20072;-76
2023/05/18 02:27:19;;;;;;;0.20;0.20;;;8.30;99.90;;;;;;4861807;29;20726;-76
2023/05/18 02:29:45;;;;;;;0.10;0.10;;;8.40;99.90;;;;;;4857982;29;20105;-76
2023/05/18 02:32:31;;;;;;;0.20;0.20;;;8.40;99.90;;;;;;4862582;29;20180;-76
2023/05/18 02:35:17;;;;;;;0.10;0.10;;;9.10;99.90;;;;;;4874052;29;20059;-76
2023/05/18 02:37:43;;;;;;;0.10;0.10;;;9.30;99.90;;;;;;4879111;29;20508;-76
2023/05/18 02:43:21;;;;;;;0.20;0.20;;;8.30;99.90;;;;;;4878425;29;20057;-76
2023/05/18 02:45:53;;;;;;;0.17;0.17;;;8.50;99.90;;;;;;4876500;29;20045;-76
2023/05/18 02:48:34;;;;;;;0.10;0.10;;;8.80;99.90;;;;;;4876987;29;20491;-76
2023/05/18 02:51:18;;;;;;;0.20;0.20;;;8.50;99.90;;;;;;4874627;29;20053;-76
2023/05/18 02:53:44;;;;;;;0.20;0.20;;;8.10;99.90;;;;;;4858941;29;20064;-76
2023/05/18 02:56:11;;;;;;;0.13;0.13;;;8.50;99.90;;;;;;4876515;29;20037;-77
2023/05/18 02:58:46;;;;;;;0.10;0.10;;;8.50;99.90;;;;;;4858100;29;20517;-76
2023/05/18 03:01:11;;;;;;;0.10;0.10;;;8.50;99.90;;;;;;4857155;29;20407;-76
2023/05/18 03:03:38;;;;;;;0.10;0.10;;;8.50;99.90;;;;;;4859714;29;20063;-76
2023/05/18 03:06:14;;;;;;;0.20;0.20;;;8.50;99.90;;;;;;4876680;29;20136;-76
2023/05/18 03:08:41;;;;;;;0.15;0.15;;;9.40;99.90;;;;;;4859926;29;20690;-77
2023/05/18 03:11:06;;;;;;;0.20;0.20;;;8.40;99.90;;;;;;4857918;29;20049;-76
2023/05/18 03:13:42;;;;;;;0.20;0.20;;;8.50;99.90;;;;;;4860855;29;20442;-75
2023/05/18 03:16:14;;;;;;;0.20;0.20;;;9.20;99.90;;;;;;4865870;29;20125;-76
2023/05/18 03:18:52;;;;;;;0.15;0.15;;;8.70;99.90;;;;;;4880652;29;20072;-76
2023/05/18 03:21:37;;;;;;;0.10;0.10;;;8.40;99.90;;;;;;4876236;29;20124;-76
2023/05/18 03:24:13;;;;;;;0.20;0.20;;;8.50;99.90;;;;;;4860901;29;20057;-76
2023/05/18 03:26:42;;;;;;;0.20;0.20;;;8.50;99.90;;;;;;4876182;29;20063;-76
2023/05/18 03:29:10;;;;;;;0.20;0.20;;;8.50;99.90;;;;;;4871711;29;20063;-76
2023/05/18 03:31:40;;;;;;;0.10;0.10;;;9.10;99.90;;;;;;4858572;29;20083;-76
2023/05/18 03:34:26;;;;;;;0.17;0.17;;;8.50;99.90;;;;;;4878575;29;20379;-76
2023/05/18 03:36:53;;;;;;;0.20;0.20;;;8.50;99.90;;;;;;4878502;29;20053;-76
2023/05/18 03:39:43;;;;;;;0.20;0.20;;;8.50;99.90;;;;;;4875374;29;20052;-76
2023/05/18 03:42:09;;;;;;;0.10;0.10;;;8.50;99.90;;;;;;4876524;29;20037;-76
2023/05/18 03:44:35;;;;;;;0.17;0.17;;;8.80;99.90;;;;;;4890262;29;21019;-76
2023/05/18 03:47:01;;;;;;;0.20;0.20;;;8.60;99.90;;;;;;4861951;29;20188;-76
2023/05/18 03:49:32;;;;;;;0.10;0.10;;;8.60;99.90;;;;;;4860400;29;20048;-76
2023/05/18 03:52:21;;;;;;;0.20;0.20;;;8.70;99.90;;;;;;4872716;29;20053;-75
2023/05/18 03:55:05;;;;;;;0.17;0.17;;;9.20;99.90;;;;;;4865951;29;20054;-76
2023/05/18 03:57:30;;;;;;;0.20;0.20;;;8.60;99.90;;;;;;4881518;29;20080;-76
2023/05/18 04:00:05;;;;;;;0.20;0.20;;;8.70;99.90;;;;;;4880822;29;20045;-76
2023/05/18 04:02:56;;;;;;;0.20;0.20;;;8.70;99.90;;;;;;4849174;29;20160;-76
2023/05/18 04:05:34;;;;;;;0.10;0.10;;;9.50;99.90;;;;;;4859511;29;20091;-75
2023/05/18 04:08:19;;;;;;;0.20;0.20;;;8.70;99.90;;;;;;4865128;29;20061;-76
2023/05/18 04:10:49;;;;;;;0.10;0.10;;;8.60;99.90;;;;;;4869879;29;20063;-76
2023/05/18 04:13:15;;;;;;;0.20;0.20;;;8.70;99.90;;;;;;4874642;29;20040;-76
2023/05/18 04:15:59;;;;;;;0.20;0.20;;;8.30;99.90;;;;;;4875262;29;20128;-76
2023/05/18 04:18:28;;;;;;;0.10;0.10;;;9.70;99.90;;;;;;4877776;29;20525;-76
2023/05/18 04:21:05;;;;;;;0.20;0.20;;;9.50;99.90;;;;;;4858301;29;20041;-76
2023/05/18 04:23:43;;;;;;;0.15;0.15;;;8.70;99.90;;;;;;4873598;29;20108;-76
2023/05/18 04:26:09;;;;;;;0.10;0.10;;;8.70;99.90;;;;;;4876678;29;20053;-76
2023/05/18 04:28:42;;;;;;;0.10;0.10;;;8.70;99.90;;;;;;4874709;29;20512;-76
2023/05/18 04:31:07;;;;;;;0.10;0.10;;;8.80;99.90;;;;;;4873577;29;20037;-76
2023/05/18 04:33:50;;;;;;;0.10;0.10;;;9.40;99.90;;;;;;4859716;29;20055;-76
2023/05/18 04:36:19;;;;;;;0.20;0.20;;;8.90;99.90;;;;;;4872725;29;20048;-76
2023/05/18 04:38:45;;;;;;;0.17;0.17;;;8.90;99.90;;;;;;4857731;29;20052;-76
2023/05/18 04:41:21;;;;;;;0.20;0.20;;;9.20;99.90;;;;;;4874607;29;20095;-76
2023/05/18 04:43:47;;;;;;;0.20;0.20;;;9.60;99.90;;;;;;4875348;29;20529;-76
2023/05/18 04:46:12;;;;;;;0.20;0.20;;;8.90;99.90;;;;;;4858896;29;20387;-76
2023/05/18 04:48:38;;;;;;;0.20;0.20;;;9.20;99.90;;;;;;4859392;29;20158;-76
2023/05/18 04:51:20;;;;;;;0.15;0.15;;;9.00;99.90;;;;;;4859017;29;20493;-76
2023/05/18 04:53:48;;;;;;;0.13;0.13;;;9.50;99.90;;;;;;4861195;29;20049;-76
2023/05/18 04:56:23;;;;;;;0.15;0.15;;;9.00;99.90;;;;;;4874819;29;20045;-76
2023/05/18 04:59:08;;;;;;;0.10;0.10;;;9.10;99.90;;;;;;4860335;29;20076;-75
2023/05/18 05:01:58;;;;;;;0.20;0.20;;;9.00;99.90;;;;;;4853394;29;20089;-76
2023/05/18 05:04:26;;;;;;;0.20;0.20;;;9.10;99.90;;;;;;4859292;29;20055;-76
2023/05/18 05:06:52;;;;;;;0.10;0.10;;;9.00;99.90;;;;;;4846544;29;20136;-76
2023/05/18 05:09:18;;;;;;;0.20;0.20;;;9.00;99.90;;;;;;4869763;29;20453;-76
2023/05/18 05:11:46;;;;;;;0.17;0.17;;;9.00;99.90;;;;;;4866951;29;20045;-76
2023/05/18 05:14:24;;;;;;;0.20;0.20;;;10.00;99.90;;;;;;4860006;29;20041;-76
2023/05/18 05:16:56;;;;;;;0.10;0.10;;;8.50;99.90;;;;;;4874600;29;20056;-76
2023/05/18 05:19:25;;;;;;;0.10;0.10;;;9.00;99.90;;;;;;4876130;29;20084;-76
2023/05/18 05:21:50;;;;;;;0.20;0.20;;;8.50;99.90;;;;;;4859755;29;20045;-76
2023/05/18 05:24:16;;;;;;;0.20;0.20;;;9.00;99.90;;;;;;4858467;29;20045;-75
2023/05/18 05:26:58;;;;;;;0.10;0.10;;;9.70;99.90;;;;;;4874932;29;20056;-76
2023/05/18 05:29:32;;;;;;;0.20;0.20;;;9.00;99.90;;;;;;4873786;29;20079;-76
2023/05/18 05:32:13;;;;;;;0.13;0.13;;;9.90;99.90;;;;;;4875210;29;20440;-75
2023/05/18 05:34:39;;;;;;;0.20;0.20;;;9.00;99.90;;;;;;4859763;29;20048;-76
2023/05/18 05:37:08;;;;;;;0.20;0.20;;;9.00;99.90;;;;;;4873161;29;20090;-76
2023/05/18 05:39:34;;;;;;;0.20;0.20;;;9.10;99.90;;;;;;4882038;29;20093;-75
2023/05/18 05:42:09;;;;;;;0.20;0.20;;;8.50;99.90;;;;;;4858546;29;20068;-76
2023/05/18 05:44:35;;;;;;;0.20;0.20;;;9.10;99.90;;;;;;4855485;29;20063;-75
2023/05/18 05:47:04;;;;;;;0.10;0.10;;;9.20;99.90;;;;;;4858599;29;20355;-76
2023/05/18 05:49:36;;;;;;;0.17;0.17;;;9.20;99.90;;;;;;4875923;29;20080;-76
2023/05/18 05:52:17;;;;;;;0.20;0.20;;;9.30;99.90;;;;;;4858065;29;20045;-76
2023/05/18 05:54:43;;;;;;;0.20;0.20;;;10.10;99.90;;;;;;4873586;29;20401;-76
2023/05/18 05:57:08;;;;;;;0.10;0.10;;;9.30;99.90;;;;;;4859150;29;20049;-76
2023/05/18 05:59:34;;;;;;;0.10;0.10;;;8.80;99.90;;;;;;4874175;29;20049;-76
2023/05/18 06:02:06;;;;;;;0.20;0.20;;;9.70;99.90;;;;;;4859847;29;20096;-77
2023/05/18 06:04:37;;;;;;;0.20;0.20;;;9.90;99.90;;;;;;4859547;29;20049;-76
2023/05/18 06:07:03;;;;;;;0.20;0.20;;;10.20;99.90;;;;;;4864634;29;20513;-76
2023/05/18 06:10:30;;;;;;;0.20;0.20;;;9.30;99.90;;;;;;4866390;29;20109;-76
2023/05/18 06:13:21;;;;;;;0.20;0.20;;;9.20;99.90;;;;;;4858425;29;20120;-76
2023/05/18 06:15:47;;;;;;;0.20;0.20;;;9.50;99.90;;;;;;4872877;29;20060;-77
2023/05/18 06:18:19;;;;;;;0.20;0.20;;;9.50;99.90;;;;;;4859184;29;20052;-76
2023/05/18 06:20:44;;;;;;;0.20;0.20;;;9.60;99.90;;;;;;4890705;29;20449;-76
2023/05/18 06:23:10;;;;;;;0.10;0.10;;;9.60;99.90;;;;;;4875234;29;20057;-76
2023/05/18 06:26:21;;;;;;;0.20;0.20;;;9.60;99.90;;;;;;4863611;24;20057;-76
2023/05/18 06:31:12;;;;;;;0.17;0.17;;;9.60;99.90;;;;;;4893661;23;20057;-83
2023/05/18 06:33:38;;;;;;;0.10;0.10;;;9.70;99.90;;;;;;4876232;29;20057;-82
2023/05/18 06:36:04;;;;;;;0.20;0.20;;;9.70;99.90;;;;;;4876215;29;20186;-82
2023/05/18 06:38:30;;;;;;;0.10;0.10;;;9.70;99.90;;;;;;4864225;29;20037;-82
2023/05/18 06:40:58;;;;;;;0.20;0.20;;;9.70;99.90;;;;;;4863172;29;20053;-82
2023/05/18 06:43:25;;;;;;;0.10;0.10;;;9.80;99.90;;;;;;4880447;29;20552;-82
2023/05/18 06:45:51;;;;;;;0.20;0.20;;;9.80;99.90;;;;;;4860806;29;20106;-82
2023/05/18 06:48:17;;;;;;;0.20;0.20;;;9.90;99.90;;;;;;4878922;29;20049;-82
2023/05/18 06:50:42;;;;;;;0.10;0.10;;;9.90;99.90;;;;;;4861365;29;20382;-82
2023/05/18 06:53:08;;;;;;;0.20;0.20;;;10.00;99.90;;;;;;4869404;29;20052;-82
2023/05/18 06:55:34;;;;;;;0.20;0.20;;;10.00;99.90;;;;;;4879216;29;20131;-83
2023/05/18 06:57:59;;;;;;;0.10;0.10;;;10.00;99.90;;;;;;4861839;29;20135;-82
2023/05/18 07:00:25;;;;;;;0.20;0.20;;;10.00;99.90;;;;;;4877928;29;20733;-83
2023/05/18 07:02:50;;;;;;;0.10;0.10;;;10.00;99.90;;;;;;4879957;29;20053;-83
2023/05/18 07:05:16;;;;;;;0.20;0.20;;;10.10;99.90;;;;;;4880079;29;20096;-81
2023/05/18 07:07:42;;;;;;;0.20;0.20;;;9.60;99.90;;;;;;4865639;29;20490;-82
2023/05/18 07:10:11;;;;;;;0.13;0.13;;;10.30;99.90;;;;;;4893999;29;20056;-83
2023/05/18 07:12:36;;;;;;;0.20;0.20;;;10.10;99.90;;;;;;4880263;29;20049;-82
2023/05/18 07:15:03;;;;;;;0.20;0.20;;;10.10;99.90;;;;;;4876232;29;20052;-82
2023/05/18 07:17:28;;;;;;;0.20;0.20;;;10.20;99.90;;;;;;4874627;29;20064;-82
2023/05/18 07:19:54;;;;;;;0.17;0.17;;;10.20;99.90;;;;;;4906116;23;20122;-82
2023/05/18 07:22:20;;;;;;;0.15;0.15;;;10.20;99.90;;;;;;4909274;29;20056;-82
2023/05/18 07:24:46;;;;;;;0.10;0.10;;;10.20;99.90;;;;;;4898064;29;20048;-82
2023/05/18 07:27:11;;;;;;;0.10;0.10;;;10.30;99.90;;;;;;4864059;29;20040;-82
2023/05/18 07:29:37;;;;;;;0.10;0.10;;;10.40;99.90;;;;;;4859558;29;20041;-82
2023/05/18 07:32:03;;;;;;;0.20;0.20;;;10.40;99.90;;;;;;4878280;29;20041;-82
2023/05/18 07:34:30;;;;;;;0.20;0.20;;;10.40;99.90;;;;;;4867387;29;20056;-82
2023/05/18 07:36:56;;;;;;;0.10;0.10;;;10.50;99.90;;;;;;4867934;29;20413;-82
2023/05/18 07:39:27;;;;;;;0.20;0.20;;;10.60;99.90;;;;;;4881037;29;20648;-82
2023/05/18 07:41:54;;;;;;;0.20;0.20;;;10.60;99.90;;;;;;4861013;29;20049;-82
2023/05/18 07:44:19;;;;;;;0.20;0.20;;;10.60;99.90;;;;;;4860228;29;20111;-82
2023/05/18 07:46:45;;;;;;;0.17;0.17;;;10.70;99.90;;;;;;4876853;29;20413;-82
2023/05/18 07:49:11;;;;;;;0.20;0.20;;;10.70;99.90;;;;;;4890207;29;20052;-82
2023/05/18 07:51:36;;;;;;;0.20;0.20;;;10.80;99.90;;;;;;4865023;29;20110;-82
2023/05/18 07:54:02;;;;;;;0.20;0.20;;;10.80;99.90;;;;;;4876587;29;20113;-82
2023/05/18 07:56:28;;;;;;;0.10;0.10;;;10.90;99.90;;;;;;4873402;29;20049;-81
2023/05/18 07:59:05;;;;;;;0.15;0.15;;;10.90;99.90;;;;;;4869626;29;20045;-82
2023/05/18 08:01:31;;;;;;;0.20;0.20;;;11.00;99.90;;;;;;4858016;29;20053;-82
2023/05/18 08:03:57;;;;;;;0.10;0.10;;;11.00;99.90;;;;;;4860821;29;20128;-82
2023/05/18 08:06:22;;;;;;;0.10;0.10;;;11.10;99.90;;;;;;4877845;29;20045;-83
2023/05/18 08:08:57;;;;;;;0.17;0.17;;;11.10;99.90;;;;;;4862988;29;20052;-84
2023/05/18 08:11:23;;;;;;;0.10;0.10;;;11.10;99.70;;;;;;4877277;29;20527;-82
2023/05/18 08:13:49;;;;;;;0.20;0.20;;;11.10;99.50;;;;;;4875075;29;20037;-83
2023/05/18 08:16:14;;;;;;;0.20;0.20;;;11.10;99.40;;;;;;4854131;29;20037;-82
2023/05/18 08:18:40;;;;;;;0.10;0.10;;;11.20;99.50;;;;;;4854688;29;20108;-82
2023/05/18 08:21:08;;;;;;;0.10;0.10;;;11.20;99.60;;;;;;4857984;29;20049;-83
2023/05/18 08:23:37;;;;;;;0.20;0.20;;;11.30;99.80;;;;;;4873442;29;20128;-82
2023/05/18 08:26:03;;;;;;;0.20;0.20;;;11.30;99.40;;;;;;4853328;29;20306;-81
2023/05/18 08:28:30;;;;;;;0.20;0.20;;;11.40;99.50;;;;;;4867367;29;20048;-80
2023/05/18 08:30:56;;;;;;;0.20;0.20;;;11.40;99.60;;;;;;4857950;29;20548;-80
2023/05/18 08:33:22;;;;;;;0.20;0.20;;;11.50;99.80;;;;;;4853096;29;20417;-80
2023/05/18 08:35:48;;;;;;;0.20;0.20;;;11.60;99.90;;;;;;4850762;29;20064;-80
2023/05/18 08:38:15;;;;;;;0.20;0.20;;;11.70;99.80;;;;;;4869152;29;20037;-83
2023/05/18 08:41:03;;;;;;;0.13;0.13;;;11.70;99.60;;;;;;4863874;29;20041;-81
2023/05/18 08:43:32;;;;;;;0.10;0.10;;;11.80;99.30;;;;;;4867236;29;20440;-80
2023/05/18 08:46:09;;;;;;;0.20;0.20;;;11.80;99.00;;;;;;4869958;29;20144;-81
2023/05/18 08:48:35;;;;;;;0.10;0.10;;;11.80;99.10;;;;;;4848864;29;20402;-81
2023/05/18 08:51:05;;;;;;;0.15;0.15;;;11.90;99.20;;;;;;4868515;29;20052;-81
2023/05/18 08:53:36;;;;;;;0.10;0.10;;;11.90;99.20;;;;;;4869428;29;20052;-83
2023/05/18 08:56:05;;;;;;;;;;;11.90;99.20;;;;;;4851046;29;20046;-80
2023/05/18 08:58:36;;;;;;;0.10;0.10;;;12.00;99.00;;;;;;4868292;29;20005;-80
2023/05/18 09:01:03;;;;;;;0.10;0.10;;;12.00;99.00;;;;;;4881630;29;20072;-82
2023/05/18 09:03:30;;;;;;;0.20;0.20;;;12.00;99.20;;;;;;4875305;29;20296;-83
2023/05/18 09:05:58;;;;;;;0.10;0.10;;;12.10;99.30;;;;;;4858548;29;20049;-86
2023/05/18 09:08:28;;;;;;;0.20;0.20;;;12.20;99.40;;;;;;4882253;29;20342;-88
2023/05/18 09:10:57;;;;;;;0.10;0.10;;;12.30;99.30;;;;;;4879118;29;20089;-87
2023/05/18 09:13:23;;;;;;;0.10;0.10;;;12.30;99.40;;;;;;4878316;29;20049;-88
2023/05/18 09:15:50;;;;;;;0.20;0.20;;;12.40;99.50;;;;;;4866008;29;20044;-88
2023/05/18 09:18:16;;;;;;;0.15;0.15;;;12.50;99.60;;;;;;4885667;23;20037;-88
2023/05/18 09:20:41;;;;;;;0.20;0.20;;;12.60;98.90;;;;;;4879311;29;20124;-86
2023/05/18 09:23:07;;;;;;;0.20;0.20;;;12.60;98.90;;;;;;4856035;29;20059;-84
2023/05/18 09:26:29;;;;;;;0.20;0.20;;;12.70;98.60;;;;;;4870954;29;20064;-84
2023/05/18 09:29:00;;;;;;;0.20;0.20;;;12.70;98.70;;;;;;4870313;29;20057;-84
2023/05/18 09:31:35;;;;;;;0.20;0.20;;;12.80;98.60;;;;;;4851697;29;20068;-84
2023/05/18 09:34:02;;;;;;;0.15;0.15;;;12.80;98.70;;;;;;4852960;29;20060;-83
2023/05/18 09:36:31;;;;;;;0.10;0.10;;;12.90;99.00;;;;;;4878288;29;20057;-83
2023/05/18 09:38:57;;;;;;;0.10;0.10;;;12.90;99.00;;;;;;4890587;29;20116;-84
2023/05/18 09:41:38;;;;;;;0.20;0.20;;;13.40;99.10;;;;;;4875964;29;20398;-85
2023/05/18 09:44:08;;;;;;;0.10;0.10;;;13.10;99.00;;;;;;4876533;29;20037;-82
2023/05/18 09:46:55;;;;;;;0.10;0.10;;;13.60;99.10;;;;;;4881424;29;20061;-81
2023/05/18 09:49:33;;;;;;;0.10;0.10;;;13.30;98.70;;;;;;4877553;29;20059;-83
2023/05/18 09:51:59;;;;;;;0.20;0.20;;;13.30;98.80;;;;;;4870069;29;20123;-84
2023/05/18 09:54:59;;;;;;;0.15;0.15;;;13.40;98.60;;;;;;4856269;29;20525;-82
2023/05/18 09:57:26;;;;;;;0.10;0.10;;;13.40;98.60;;;;;;4876417;29;20045;-83
2023/05/18 10:00:11;;;;;;;0.20;0.20;;;13.40;98.50;;;;;;4875073;29;20047;-82
2023/05/18 10:02:42;;;;;;;0.10;0.10;;;13.40;98.40;;;;;;4878759;29;20053;-80
2023/05/18 10:05:30;;;;;;;0.20;0.20;;;13.40;98.50;;;;;;4857235;29;20045;-81
2023/05/18 10:07:56;;;;;;;0.20;0.20;;;13.50;98.20;;;;;;4855852;29;20072;-79
2023/05/18 10:10:31;;;;;;;0.10;0.10;;;13.50;98.20;;;;;;4857951;29;20466;-80
2023/05/18 10:13:03;;;;;;;0.20;0.20;;;13.60;98.40;;;;;;4876705;29;20389;-80
2023/05/18 10:15:50;;;;;;;0.20;0.20;;;13.60;98.30;;;;;;4853609;29;20057;-79
2023/05/18 10:18:24;;;;;;;0.10;0.10;;;13.60;98.40;;;;;;4885060;23;20048;-80
2023/05/18 10:20:55;;;;;;;0.20;0.20;;;13.70;98.50;;;;;;4879379;29;20458;-80
2023/05/18 10:23:23;;;;;;;0.20;0.20;;;13.80;98.30;;;;;;4877118;29;20052;-80
2023/05/18 10:25:52;;;;;;;0.10;0.10;;;13.80;98.30;;;;;;4867500;29;20111;-81
2023/05/18 10:28:31;;;;;;;0.10;0.10;;;14.20;98.40;;;;;;4865102;29;20060;-81
2023/05/18 10:30:59;;;;;;;0.20;0.20;;;13.90;98.30;;;;;;4879353;29;20076;-80
2023/05/18 10:33:26;;;;;;;0.20;0.20;;;13.90;98.10;;;;;;4870710;23;20115;-79
2023/05/18 10:35:53;;;;;;;0.10;0.10;;;14.00;97.50;;;;;;4868189;29;20045;-80
2023/05/18 10:38:21;;;;;;;0.10;0.10;;;13.80;97.20;;;;;;4878396;29;20109;-80
2023/05/18 10:40:48;;;;;;;0.10;0.10;;;13.80;97.00;;;;;;4878089;29;20045;-81
2023/05/18 10:43:17;;;;;;;0.10;0.10;;;13.70;97.00;;;;;;4865998;29;20180;-81
2023/05/18 10:45:47;;;;;;;0.10;0.10;;;13.70;97.10;;;;;;4861054;29;20072;-80
2023/05/18 10:48:56;;;;;;;0.10;0.10;;;13.70;97.40;;;;;;4861319;29;20061;-78
2023/05/18 10:51:27;;;;;;;0.20;0.20;;;13.70;97.40;;;;;;4857661;29;20085;-79
2023/05/18 10:53:59;;;;;;;0.20;0.20;;;13.60;97.10;;;;;;4864058;29;20047;-80
2023/05/18 10:56:25;;;;;;;0.10;0.10;;;13.70;97.10;;;;;;4880390;29;20049;-80
2023/05/18 10:58:51;;;;;;;0.20;0.20;;;13.80;97.20;;;;;;4849850;29;20047;-80
2023/05/18 11:01:17;;;;;;;0.20;0.20;;;13.90;97.40;;;;;;4876466;29;20494;-80
2023/05/18 11:03:43;;;;;;;0.10;0.10;;;14.00;97.50;;;;;;4862488;29;20053;-80
2023/05/18 11:06:13;;;;;;;0.10;0.10;;;14.00;97.40;;;;;;4881968;29;20124;-80
2023/05/18 11:08:47;;;;;;;0.10;0.10;;;14.10;97.60;;;;;;4850689;29;20399;-79
2023/05/18 11:11:13;;;;;;;0.20;0.20;;;14.20;97.50;;;;;;4862898;29;20120;-79
2023/05/18 11:13:46;;;;;;;0.20;0.20;;;14.30;97.30;;;;;;4861775;29;20060;-80
2023/05/18 11:16:14;;;;;;;0.20;0.20;;;14.30;97.40;;;;;;4874433;29;20045;-80
2023/05/18 11:18:42;;;;;;;0.20;0.20;;;14.30;97.10;;;;;;4862081;29;20085;-79
2023/05/18 11:21:23;;;;;;;0.20;0.20;;;14.40;97.00;;;;;;4875656;29;20108;-80
2023/05/18 11:24:15;;;;;;;0.20;0.20;;;14.40;97.10;;;;;;4860076;29;20508;-79
2023/05/18 11:26:42;;;;;;;0.20;0.20;;;14.40;97.00;;;;;;4858845;29;20052;-80
2023/05/18 11:29:30;;;;;;;0.10;0.10;;;14.50;97.10;;;;;;4875649;29;20044;-79
2023/05/18 11:31:56;;;;;;;0.10;0.10;;;14.50;97.20;;;;;;4873873;29;20593;-79
2023/05/18 11:34:43;;;;;;;0.15;0.15;;;14.60;97.30;;;;;;4859561;29;20549;-79
2023/05/18 11:37:14;;;;;;;0.10;0.10;;;14.70;97.20;;;;;;4865152;23;20060;-80
2023/05/18 11:39:41;;;;;;;;;;;14.80;97.20;;;;;;4861336;29;20561;-80
2023/05/18 11:42:11;;;;;;;0.28;0.28;;;14.80;97.10;;;;;;4878166;29;19923;-79
2023/05/18 11:44:40;;;;;;;0.20;0.20;;;15.00;97.30;;;;;;4876142;29;20104;-79
2023/05/18 11:47:10;;;;;;;0.20;0.20;;;15.10;97.00;;;;;;4862303;29;20129;-80
2023/05/18 11:49:49;;;;;;;0.20;0.20;;;15.20;96.90;;;;;;4875338;29;20128;-79
2023/05/18 11:52:15;;;;;;;0.10;0.10;;;15.30;96.90;;;;;;4860916;29;20045;-79
2023/05/18 11:54:52;;;;;;;0.10;0.10;;;15.40;96.60;;;;;;4877615;29;20049;-80
2023/05/18 11:57:39;;;;;;;0.20;0.20;;;15.50;96.30;;;;;;4880959;29;20400;-80
2023/05/18 12:00:09;;;;;;;0.10;0.10;;;15.40;96.20;;;;;;4873765;29;20083;-79
2023/05/18 12:02:34;;;;;;;0.15;0.15;;;15.40;96.00;;;;;;4860825;29;20450;-80
2023/05/18 12:05:05;;;;;;;0.20;0.20;;;15.40;95.80;;;;;;4860039;29;20135;-80
2023/05/18 12:07:32;;;;;;;0.10;0.10;;;15.40;95.80;;;;;;4876506;29;20505;-80
2023/05/18 12:10:13;;;;;;;0.20;0.20;;;15.20;95.50;;;;;;4865944;29;20059;-80
2023/05/18 12:12:42;;;;;;;0.10;0.10;;;15.20;95.20;;;;;;4879838;29;20422;-80
2023/05/18 12:15:10;;;;;;;0.13;0.13;;;15.20;95.80;;;;;;4864563;29;20057;-80
2023/05/18 12:17:47;;;;;;;0.10;0.10;;;15.20;95.80;;;;;;4876346;23;20068;-80
2023/05/18 12:20:20;;;;;;;0.20;0.20;;;15.20;96.10;;;;;;4891731;29;20050;-81
2023/05/18 12:22:51;;;;;;;0.20;0.20;;;15.40;96.30;;;;;;4865403;29;20053;-81
2023/05/18 12:25:18;;;;;;;0.10;0.10;;;15.40;95.90;;;;;;4863504;29;20068;-79
2023/05/18 12:27:48;;;;;;;0.10;0.10;;;15.40;95.60;;;;;;4895285;29;20052;-80
2023/05/18 12:30:19;;;;;;;0.10;0.10;;;15.30;95.30;;;;;;4859620;29;20501;-81
2023/05/18 12:32:47;;;;;;;0.20;0.20;;;15.30;95.20;;;;;;4860521;29;20079;-80
2023/05/18 12:35:13;;;;;;;0.20;0.20;;;15.30;95.50;;;;;;4877375;29;20052;-80
2023/05/18 12:37:43;;;;;;;0.10;0.10;;;15.20;95.60;;;;;;4861222;29;20180;-78
2023/05/18 12:40:11;;;;;;;0.10;0.10;;;15.30;95.90;;;;;;4876793;29;20117;-79
2023/05/18 12:42:37;;;;;;;0.10;0.10;;;15.40;95.70;;;;;;4860116;29;20056;-78
2023/05/18 12:45:12;;;;;;;0.20;0.20;;;15.40;96.00;;;;;;4880493;29;20045;-78
2023/05/18 12:47:41;;;;;;;0.20;0.20;;;15.50;95.90;;;;;;4858115;29;20050;-79
2023/05/18 12:50:06;;;;;;;0.20;0.20;;;15.60;96.10;;;;;;4842025;29;20041;-80
2023/05/18 12:52:32;;;;;;;0.20;0.20;;;15.70;95.90;;;;;;4857257;29;20041;-80
2023/05/18 12:54:58;;;;;;;0.20;0.20;;;15.80;96.00;;;;;;4859792;29;20541;-80
2023/05/18 12:57:29;;;;;;;0.20;0.20;;;15.80;96.10;;;;;;4874911;29;20049;-79
2023/05/18 13:00:09;;;;;;;0.20;0.20;;;15.90;96.10;;;;;;4863486;23;20568;-80
2023/05/18 13:02:41;;;;;;;0.20;0.20;;;16.00;95.90;;;;;;4858324;29;20049;-79
2023/05/18 13:05:14;;;;;;;0.10;0.10;;;16.00;95.70;;;;;;4873446;29;20064;-78
2023/05/18 13:07:44;;;;;;;0.10;0.10;;;16.00;95.60;;;;;;4864944;29;20052;-79
2023/05/18 13:10:11;;;;;;;0.20;0.20;;;16.00;95.80;;;;;;4865078;29;20053;-78
2023/05/18 13:12:48;;;;;;;0.10;0.10;;;16.10;96.00;;;;;;4878653;29;20405;-79
2023/05/18 13:15:22;;;;;;;0.20;0.20;;;16.10;95.20;;;;;;4876467;29;20096;-79
2023/05/18 13:18:17;;;;;;;0.10;0.10;;;16.10;95.50;;;;;;4876427;29;20053;-79
2023/05/18 13:20:57;;;;;;;0.20;0.20;;;16.10;95.60;;;;;;4847277;29;20501;-79
2023/05/18 13:23:26;;;;;;;0.15;0.15;;;16.10;95.60;;;;;;4859590;29;20053;-80
2023/05/18 13:25:51;;;;;;;0.20;0.20;;;16.10;95.70;;;;;;4859121;29;20048;-81
2023/05/18 13:28:19;;;;;;;0.13;0.13;;;16.20;95.70;;;;;;4859374;29;20052;-79
2023/05/18 13:30:47;;;;;;;0.20;0.20;;;16.20;95.20;;;;;;4858914;29;20053;-79
2023/05/18 13:33:13;;;;;;;0.10;0.10;;;16.20;95.50;;;;;;4859800;29;20053;-79
2023/05/18 13:35:41;;;;;;;0.10;0.10;;;16.40;95.60;;;;;;4858388;29;20496;-79
2023/05/18 13:38:07;;;;;;;0.20;0.20;;;16.50;95.70;;;;;;4859632;29;20520;-78
2023/05/18 13:40:33;;;;;;;0.10;0.10;;;16.50;95.40;;;;;;4859433;29;20410;-78